Manila, Philippines
Current Conditions -  °F | °C
As of 6:00 PM on Monday 26 Jan 2015 (Local Time) from RPLL Reporting Station
Scattered Clouds Scattered Clouds  
Wind Chill: 81°   Ceiling: Unl
Heat Index: 83°   Visibility: 6mi
Dew Point: 68°   Wind: 12mph
Humidity: 65%   Direction: 110°ESE
Pressure: 29.94"   Gusts: NA
Location:  14.62°N, 120.97°E
Report Text: RPLL 261000Z 11010KT 9999 SCT025 SCT300 27/20 Q1014 NOSIG RMKA2994
Loading
Personal Weather Stations






























Interactive Weather Map New forecast layout! Learn more

10-Day Weather Forecast

Advertisements
Track Severe Weather on mobile